Time;durP1;ratioP1;P1;durP2;ratioP2;P2;SDS_P1;SDS_P2;PMS_P1;PMS_P2;Temp;Humidity;BMP_temperature;BMP_pressure;BME280_temperature;BME280_humidity;BME280_pressure;Samples;Min_cycle;Max_cycle;Signal;HPM_P1;HPM_P2
2021/04/05 00:01:37;;;;;;;4.65;0.80;;;;;;;;;;4961470;28;20043;-61
2021/04/05 00:04:04;;;;;;;2.78;0.73;;;;;;;;;;4963853;28;20051;-61
2021/04/05 00:06:29;;;;;;;3.90;0.90;;;;;;;;;;4962438;28;20114;-61
2021/04/05 00:08:55;;;;;;;4.55;1.10;;;;;;;;;;4961638;28;20084;-62
2021/04/05 00:11:21;;;;;;;5.47;1.00;;;;;;;;;;4961235;28;20050;-64
2021/04/05 00:13:47;;;;;;;2.83;0.57;;;;;;;;;;4964998;28;20542;-60
2021/04/05 00:16:16;;;;;;;4.32;0.70;;;;;;;;;;4963295;28;20046;-61
2021/04/05 00:18:42;;;;;;;4.75;0.90;;;;;;;;;;4963100;28;20054;-59
2021/04/05 00:21:09;;;;;;;3.25;0.90;;;;;;;;;;4965009;28;20042;-58
2021/04/05 00:23:35;;;;;;;3.40;0.90;;;;;;;;;;4963987;28;20030;-59
2021/04/05 00:26:02;;;;;;;8.77;1.00;;;;;;;;;;4963917;28;20396;-62
2021/04/05 00:28:28;;;;;;;3.97;1.42;;;;;;;;;;4968595;28;20478;-60
2021/04/05 00:30:54;;;;;;;3.35;0.90;;;;;;;;;;4963428;28;20054;-59
2021/04/05 00:33:21;;;;;;;3.95;0.70;;;;;;;;;;4959083;28;20107;-60
2021/04/05 00:35:47;;;;;;;7.80;0.88;;;;;;;;;;4959958;28;20073;-58
2021/04/05 00:38:13;;;;;;;3.88;1.13;;;;;;;;;;4960510;28;20748;-59
2021/04/05 00:40:49;;;;;;;3.90;0.93;;;;;;;;;;4960578;28;20356;-60
2021/04/05 00:43:17;;;;;;;2.30;0.70;;;;;;;;;;4961867;28;20404;-60
2021/04/05 00:45:43;;;;;;;3.22;0.80;;;;;;;;;;4960586;28;20886;-58
2021/04/05 00:48:10;;;;;;;2.80;0.80;;;;;;;;;;4958818;28;20038;-58
2021/04/05 00:50:39;;;;;;;6.15;1.17;;;;;;;;;;4960015;28;20054;-57
2021/04/05 00:53:06;;;;;;;7.68;1.10;;;;;;;;;;4962623;28;20047;-59
2021/04/05 00:55:32;;;;;;;3.25;0.82;;;;;;;;;;4962142;28;20133;-59
2021/04/05 00:57:58;;;;;;;4.60;0.70;;;;;;;;;;4957397;28;20058;-59
2021/04/05 01:00:27;;;;;;;2.95;0.80;;;;;;;;;;4955749;28;20086;-60
2021/04/05 01:02:53;;;;;;;11.13;2.67;;;;;;;;;;4960594;28;20213;-61
2021/04/05 01:05:19;;;;;;;2.85;1.00;;;;;;;;;;4964866;28;20447;-61
2021/04/05 01:07:45;;;;;;;5.03;0.82;;;;;;;;;;4966424;28;20057;-56
2021/04/05 01:10:11;;;;;;;4.93;1.05;;;;;;;;;;4964182;28;20043;-60
2021/04/05 01:12:41;;;;;;;3.40;0.80;;;;;;;;;;4963215;28;20070;-59
2021/04/05 01:15:11;;;;;;;7.88;1.52;;;;;;;;;;4964792;28;20039;-57
2021/04/05 01:17:37;;;;;;;4.45;0.80;;;;;;;;;;4947785;28;20057;-59
2021/04/05 01:20:08;;;;;;;2.58;0.80;;;;;;;;;;4966171;28;20057;-60
2021/04/05 01:22:34;;;;;;;4.20;0.90;;;;;;;;;;4966112;28;20256;-60
2021/04/05 01:25:00;;;;;;;5.38;1.00;;;;;;;;;;4966328;28;20041;-60
2021/04/05 01:27:26;;;;;;;5.03;1.75;;;;;;;;;;4964951;28;20527;-59
2021/04/05 01:29:52;;;;;;;7.07;1.65;;;;;;;;;;4965172;28;20180;-58
2021/04/05 01:32:18;;;;;;;6.00;1.10;;;;;;;;;;4966643;28;20049;-59
2021/04/05 01:34:44;;;;;;;3.08;0.80;;;;;;;;;;4963553;28;20100;-57
2021/04/05 01:37:10;;;;;;;8.95;1.52;;;;;;;;;;4995642;28;20038;-59
2021/04/05 01:39:36;;;;;;;3.95;0.88;;;;;;;;;;4963069;28;20049;-57
2021/04/05 01:42:02;;;;;;;5.28;0.93;;;;;;;;;;4963180;28;20047;-58
2021/04/05 01:44:31;;;;;;;5.07;0.88;;;;;;;;;;4963613;28;20165;-61
2021/04/05 01:46:57;;;;;;;2.63;0.75;;;;;;;;;;4964230;28;20101;-56
2021/04/05 01:49:23;;;;;;;5.90;1.10;;;;;;;;;;4963310;28;20046;-61
2021/04/05 01:51:48;;;;;;;5.40;1.17;;;;;;;;;;4964704;28;20042;-60
2021/04/05 01:54:14;;;;;;;3.42;0.90;;;;;;;;;;4962391;28;20057;-59
2021/04/05 01:56:40;;;;;;;5.32;1.10;;;;;;;;;;4962427;28;20325;-59
2021/04/05 01:59:06;;;;;;;4.22;0.90;;;;;;;;;;4961711;28;20082;-57
2021/04/05 02:01:32;;;;;;;4.07;1.02;;;;;;;;;;4963947;28;20046;-59
2021/04/05 02:03:58;;;;;;;5.55;1.30;;;;;;;;;;4963706;28;20105;-58
2021/04/05 02:06:25;;;;;;;5.70;0.95;;;;;;;;;;4963252;28;20443;-59
2021/04/05 02:08:51;;;;;;;4.45;1.00;;;;;;;;;;4964084;28;20046;-59
2021/04/05 02:11:18;;;;;;;5.88;1.13;;;;;;;;;;4963443;28;20055;-58
2021/04/05 02:13:45;;;;;;;4.40;1.10;;;;;;;;;;4960656;28;20059;-60
2021/04/05 02:16:15;;;;;;;4.95;1.10;;;;;;;;;;4962497;28;20058;-57
2021/04/05 02:18:40;;;;;;;7.30;1.10;;;;;;;;;;4959224;28;20044;-57
2021/04/05 02:21:10;;;;;;;5.35;1.40;;;;;;;;;;4963060;28;20047;-60
2021/04/05 02:23:36;;;;;;;4.35;1.13;;;;;;;;;;4962073;28;20500;-60
2021/04/05 02:26:07;;;;;;;5.25;1.30;;;;;;;;;;4963257;28;20046;-59
2021/04/05 02:28:34;;;;;;;7.35;1.30;;;;;;;;;;4962257;28;20038;-60
2021/04/05 02:31:00;;;;;;;5.20;1.20;;;;;;;;;;4962808;28;20047;-58
2021/04/05 02:33:26;;;;;;;4.30;1.05;;;;;;;;;;4963647;28;20424;-58
2021/04/05 02:35:52;;;;;;;4.68;1.00;;;;;;;;;;4963668;28;20054;-58
2021/04/05 02:38:18;;;;;;;3.85;1.40;;;;;;;;;;4965455;28;20054;-58
2021/04/05 02:40:44;;;;;;;5.32;1.05;;;;;;;;;;4963779;28;20041;-57
2021/04/05 02:43:11;;;;;;;4.03;1.10;;;;;;;;;;4963611;28;20082;-58
2021/04/05 02:45:37;;;;;;;6.18;2.00;;;;;;;;;;4963501;28;20042;-57
2021/04/05 02:48:04;;;;;;;5.22;1.55;;;;;;;;;;4960876;28;20050;-57
2021/04/05 02:50:31;;;;;;;3.00;1.10;;;;;;;;;;4961754;28;20046;-58
2021/04/05 02:53:03;;;;;;;3.92;1.67;;;;;;;;;;4967408;28;20054;-57
2021/04/05 02:55:30;;;;;;;6.23;1.37;;;;;;;;;;4960431;28;20105;-58
2021/04/05 02:57:56;;;;;;;4.57;1.30;;;;;;;;;;4962473;28;20284;-58
2021/04/05 03:00:22;;;;;;;3.65;1.30;;;;;;;;;;4962753;28;20070;-57
2021/04/05 03:02:49;;;;;;;4.25;1.30;;;;;;;;;;4979155;28;20039;-55
2021/04/05 03:05:23;;;;;;;3.78;1.05;;;;;;;;;;4962884;28;20051;-58
2021/04/05 03:07:50;;;;;;;6.55;1.45;;;;;;;;;;4962517;28;20053;-58
2021/04/05 03:10:17;;;;;;;3.63;1.05;;;;;;;;;;4960658;28;20527;-58
2021/04/05 03:12:43;;;;;;;3.55;1.00;;;;;;;;;;4975838;28;20065;-58
2021/04/05 03:15:14;;;;;;;4.45;0.95;;;;;;;;;;4971119;28;20047;-54
2021/04/05 03:17:40;;;;;;;6.40;1.27;;;;;;;;;;4959758;28;20043;-59
2021/04/05 03:20:11;;;;;;;5.40;1.15;;;;;;;;;;4961714;28;20073;-59
2021/04/05 03:22:39;;;;;;;3.67;1.05;;;;;;;;;;4959630;28;20043;-60
2021/04/05 03:25:08;;;;;;;5.95;1.15;;;;;;;;;;4960546;28;20412;-58
2021/04/05 03:27:34;;;;;;;5.28;1.10;;;;;;;;;;4959466;28;20076;-59
2021/04/05 03:30:01;;;;;;;8.88;1.10;;;;;;;;;;4960567;28;20408;-58
2021/04/05 03:32:27;;;;;;;4.07;1.05;;;;;;;;;;4960271;28;20042;-59
2021/04/05 03:34:58;;;;;;;4.20;0.90;;;;;;;;;;4960797;28;20051;-58
2021/04/05 03:37:26;;;;;;;4.82;0.80;;;;;;;;;;4961502;28;20054;-58
2021/04/05 03:39:52;;;;;;;3.60;1.00;;;;;;;;;;4960658;28;20237;-55
2021/04/05 03:42:36;;;;;;;3.40;0.90;;;;;;;;;;4962076;28;20051;-59
2021/04/05 03:45:05;;;;;;;5.25;0.90;;;;;;;;;;4961680;28;20079;-59
2021/04/05 03:47:50;;;;;;;2.90;1.00;;;;;;;;;;4961567;28;20043;-58
2021/04/05 03:50:21;;;;;;;5.05;0.98;;;;;;;;;;4959761;28;20078;-58
2021/04/05 03:52:59;;;;;;;4.35;1.00;;;;;;;;;;4960269;28;20173;-58
2021/04/05 03:55:28;;;;;;;2.92;0.98;;;;;;;;;;4960096;28;20046;-58
2021/04/05 03:57:55;;;;;;;4.78;0.90;;;;;;;;;;4957716;28;20061;-58
2021/04/05 04:00:22;;;;;;;4.70;1.02;;;;;;;;;;4961025;28;20974;-58
2021/04/05 04:02:50;;;;;;;3.40;0.90;;;;;;;;;;4961126;28;20169;-57
2021/04/05 04:05:23;;;;;;;5.15;1.10;;;;;;;;;;4962502;28;20035;-58
2021/04/05 04:08:00;;;;;;;3.35;0.90;;;;;;;;;;4959109;28;21006;-58
2021/04/05 04:10:28;;;;;;;6.55;1.45;;;;;;;;;;4959130;28;20054;-59
2021/04/05 04:12:55;;;;;;;4.95;1.00;;;;;;;;;;4960078;28;20185;-57
2021/04/05 04:15:21;;;;;;;3.15;0.80;;;;;;;;;;4959609;28;20039;-56
2021/04/05 04:17:48;;;;;;;6.15;0.80;;;;;;;;;;4959892;28;20046;-57
2021/04/05 04:20:16;;;;;;;5.57;0.70;;;;;;;;;;4958601;28;20035;-58
2021/04/05 04:22:45;;;;;;;5.25;0.90;;;;;;;;;;4958084;28;20419;-58
2021/04/05 04:25:11;;;;;;;5.03;0.90;;;;;;;;;;4958962;28;20389;-56
2021/04/05 04:27:38;;;;;;;3.85;0.90;;;;;;;;;;4961180;28;20203;-56
2021/04/05 04:30:05;;;;;;;3.53;1.10;;;;;;;;;;4959802;28;20275;-57
2021/04/05 04:32:32;;;;;;;2.97;0.70;;;;;;;;;;4958604;28;20039;-58
2021/04/05 04:34:58;;;;;;;4.25;1.00;;;;;;;;;;4960688;28;20050;-59
2021/04/05 04:37:24;;;;;;;4.82;1.08;;;;;;;;;;4959079;28;20297;-59
2021/04/05 04:39:50;;;;;;;3.55;1.05;;;;;;;;;;4960880;28;20106;-59
2021/04/05 04:42:15;;;;;;;3.10;0.82;;;;;;;;;;4962646;28;20061;-59
2021/04/05 04:44:41;;;;;;;3.03;1.00;;;;;;;;;;4960452;28;20965;-59
2021/04/05 04:47:07;;;;;;;4.13;1.00;;;;;;;;;;4960545;28;20038;-59
2021/04/05 04:49:33;;;;;;;2.88;0.82;;;;;;;;;;4959755;28;20105;-58
2021/04/05 04:51:59;;;;;;;3.63;1.00;;;;;;;;;;4962325;28;20051;-58
2021/04/05 04:54:25;;;;;;;7.15;1.05;;;;;;;;;;4974458;28;20053;-58
2021/04/05 04:56:52;;;;;;;3.97;1.00;;;;;;;;;;4961054;28;20575;-58
2021/04/05 04:59:18;;;;;;;3.97;0.88;;;;;;;;;;4960804;28;20844;-57
2021/04/05 05:01:44;;;;;;;2.80;1.00;;;;;;;;;;4959005;28;20046;-59
2021/04/05 05:04:13;;;;;;;2.95;0.90;;;;;;;;;;4961294;28;20519;-59
2021/04/05 05:06:41;;;;;;;4.15;0.85;;;;;;;;;;4960513;28;20126;-58
2021/04/05 05:09:07;;;;;;;4.60;0.88;;;;;;;;;;4991297;28;20126;-58
2021/04/05 05:11:33;;;;;;;4.60;1.02;;;;;;;;;;4961625;28;20528;-57
2021/04/05 05:13:59;;;;;;;6.65;1.02;;;;;;;;;;4962861;28;20130;-59
2021/04/05 05:16:30;;;;;;;3.45;0.90;;;;;;;;;;4962412;28;20141;-59
2021/04/05 05:19:00;;;;;;;5.15;1.02;;;;;;;;;;4962730;28;20046;-59
2021/04/05 05:21:44;;;;;;;6.97;1.10;;;;;;;;;;4962090;28;20045;-58
2021/04/05 05:24:12;;;;;;;6.40;1.00;;;;;;;;;;4962981;28;20085;-57
2021/04/05 05:26:38;;;;;;;2.50;0.80;;;;;;;;;;4963556;28;20065;-57
2021/04/05 05:29:08;;;;;;;5.85;1.00;;;;;;;;;;4963098;28;20380;-56
2021/04/05 05:31:42;;;;;;;5.70;1.40;;;;;;;;;;4964052;28;20077;-54
2021/04/05 05:34:09;;;;;;;4.15;1.20;;;;;;;;;;4963328;28;20046;-56
2021/04/05 05:36:38;;;;;;;4.65;1.10;;;;;;;;;;4962112;28;20681;-57
2021/04/05 05:39:04;;;;;;;6.18;1.00;;;;;;;;;;4961992;28;20035;-58
2021/04/05 05:41:36;;;;;;;7.30;1.02;;;;;;;;;;4962745;28;20565;-55
2021/04/05 05:44:09;;;;;;;3.10;0.95;;;;;;;;;;4964069;28;20039;-57
2021/04/05 05:46:43;;;;;;;4.00;1.10;;;;;;;;;;4962165;28;20030;-57
2021/04/05 05:49:12;;;;;;;3.97;1.10;;;;;;;;;;4964634;28;20053;-58
2021/04/05 05:51:54;;;;;;;5.45;0.88;;;;;;;;;;4964598;28;20571;-57
2021/04/05 05:54:33;;;;;;;4.30;0.88;;;;;;;;;;4965023;28;20038;-56
2021/04/05 05:57:19;;;;;;;5.13;0.90;;;;;;;;;;4964130;28;20046;-58
2021/04/05 06:00:03;;;;;;;3.58;1.00;;;;;;;;;;4964426;28;20451;-56
2021/04/05 06:02:39;;;;;;;4.03;0.98;;;;;;;;;;4963630;28;20105;-56
2021/04/05 06:05:24;;;;;;;7.15;1.30;;;;;;;;;;4964670;28;20966;-56
2021/04/05 06:07:50;;;;;;;5.95;1.08;;;;;;;;;;4963361;28;20035;-58
2021/04/05 06:10:31;;;;;;;3.97;1.10;;;;;;;;;;4962998;28;20047;-57
2021/04/05 06:13:15;;;;;;;3.92;1.02;;;;;;;;;;4962732;28;20130;-58
2021/04/05 06:15:52;;;;;;;3.13;0.80;;;;;;;;;;4963624;28;20065;-56
2021/04/05 06:18:23;;;;;;;4.65;1.10;;;;;;;;;;4962935;28;20049;-56
2021/04/05 06:20:54;;;;;;;7.28;1.00;;;;;;;;;;4962100;28;20070;-54
2021/04/05 06:23:36;;;;;;;5.28;1.00;;;;;;;;;;4959989;28;20105;-54
2021/04/05 06:26:04;;;;;;;5.40;1.02;;;;;;;;;;4964685;28;20504;-54
2021/04/05 06:28:38;;;;;;;5.40;1.20;;;;;;;;;;4965331;28;20035;-56
2021/04/05 06:31:04;;;;;;;6.43;1.02;;;;;;;;;;4964773;28;20193;-57
2021/04/05 06:33:32;;;;;;;3.53;1.08;;;;;;;;;;4965075;28;20034;-57
2021/04/05 06:36:07;;;;;;;4.43;1.17;;;;;;;;;;4970408;28;20654;-56
2021/04/05 06:38:51;;;;;;;4.28;1.10;;;;;;;;;;4964616;28;20053;-56
2021/04/05 06:41:23;;;;;;;5.00;1.17;;;;;;;;;;4967209;28;20046;-58
2021/04/05 06:43:55;;;;;;;5.25;1.30;;;;;;;;;;4965404;28;20038;-57
2021/04/05 06:46:31;;;;;;;5.05;1.25;;;;;;;;;;4967241;28;20181;-56
2021/04/05 06:49:05;;;;;;;3.40;1.08;;;;;;;;;;4965796;28;20128;-56
2021/04/05 06:51:41;;;;;;;4.90;1.23;;;;;;;;;;4964528;28;20113;-57
2021/04/05 06:54:10;;;;;;;8.68;1.50;;;;;;;;;;4965395;28;20043;-56
2021/04/05 06:56:42;;;;;;;6.85;1.42;;;;;;;;;;4963277;28;20516;-56
2021/04/05 06:59:21;;;;;;;4.75;1.30;;;;;;;;;;4963319;28;20043;-56
2021/04/05 07:02:05;;;;;;;7.13;1.45;;;;;;;;;;4963398;28;20053;-52
2021/04/05 07:04:34;;;;;;;8.38;1.33;;;;;;;;;;4963841;28;20042;-57
2021/04/05 07:07:00;;;;;;;5.30;1.73;;;;;;;;;;4964131;28;20039;-56
2021/04/05 07:09:42;;;;;;;5.68;1.30;;;;;;;;;;4963488;28;20100;-56
2021/04/05 07:12:27;;;;;;;4.50;1.50;;;;;;;;;;4960178;28;20093;-52
2021/04/05 07:15:11;;;;;;;7.38;1.40;;;;;;;;;;4962846;28;20626;-55
2021/04/05 07:17:37;;;;;;;5.75;1.73;;;;;;;;;;4960689;28;20043;-54
2021/04/05 07:20:03;;;;;;;8.20;1.77;;;;;;;;;;4963594;28;20101;-56
2021/04/05 07:22:29;;;;;;;6.40;1.85;;;;;;;;;;4963635;28;20039;-56
2021/04/05 07:25:00;;;;;;;5.45;1.67;;;;;;;;;;4964080;28;20520;-56
2021/04/05 07:27:44;;;;;;;4.13;1.70;;;;;;;;;;4963561;28;20119;-54
2021/04/05 07:30:13;;;;;;;7.97;1.90;;;;;;;;;;4963473;28;20047;-54
2021/04/05 07:33:02;;;;;;;7.10;1.55;;;;;;;;;;4962092;28;20074;-52
2021/04/05 07:35:37;;;;;;;7.80;1.80;;;;;;;;;;4962576;28;20053;-53
2021/04/05 07:38:11;;;;;;;5.20;1.40;;;;;;;;;;4963352;28;20769;-56
2021/04/05 07:40:43;;;;;;;7.78;1.70;;;;;;;;;;4963783;28;20070;-57
2021/04/05 07:43:27;;;;;;;4.07;1.60;;;;;;;;;;4964125;28;20046;-58
2021/04/05 07:45:57;;;;;;;5.10;1.52;;;;;;;;;;4964498;28;20073;-54
2021/04/05 07:48:34;;;;;;;4.07;1.52;;;;;;;;;;4963065;28;20035;-57
2021/04/05 07:51:09;;;;;;;4.95;1.30;;;;;;;;;;4963995;28;20050;-53
2021/04/05 07:53:49;;;;;;;4.72;1.33;;;;;;;;;;4962224;28;20085;-52
2021/04/05 07:56:19;;;;;;;5.13;1.40;;;;;;;;;;4962138;28;20054;-55
2021/04/05 07:59:03;;;;;;;4.35;1.48;;;;;;;;;;4961310;28;21192;-56
2021/04/05 08:01:34;;;;;;;8.15;1.88;;;;;;;;;;4963135;28;20046;-56
2021/04/05 08:04:00;;;;;;;9.70;1.70;;;;;;;;;;4963139;28;20046;-54
2021/04/05 08:06:32;;;;;;;5.20;1.67;;;;;;;;;;4962466;28;20034;-56
2021/04/05 08:09:01;;;;;;;3.70;1.40;;;;;;;;;;4963160;28;20043;-57
2021/04/05 08:11:35;;;;;;;7.78;1.70;;;;;;;;;;4961871;28;20105;-54
2021/04/05 08:14:01;;;;;;;3.42;1.50;;;;;;;;;;4962253;28;20148;-55
2021/04/05 08:16:34;;;;;;;4.22;1.55;;;;;;;;;;4961202;28;20490;-54
2021/04/05 08:19:18;;;;;;;4.88;1.50;;;;;;;;;;4962740;28;20065;-57
2021/04/05 08:22:03;;;;;;;5.95;1.55;;;;;;;;;;4962817;28;20050;-55
2021/04/05 08:24:34;;;;;;;4.15;1.92;;;;;;;;;;4963010;28;20035;-56
2021/04/05 08:27:06;;;;;;;5.97;1.63;;;;;;;;;;4961972;28;20062;-53
2021/04/05 08:29:58;;;;;;;7.68;1.40;;;;;;;;;;4998309;28;20112;-57
2021/04/05 08:32:37;;;;;;;4.22;1.42;;;;;;;;;;4997445;28;20030;-54
2021/04/05 08:35:15;;;;;;;5.28;1.63;;;;;;;;;;5001560;28;20044;-57
2021/04/05 08:37:59;;;;;;;4.63;1.50;;;;;;;;;;4998551;28;20053;-54
2021/04/05 08:40:30;;;;;;;4.95;1.40;;;;;;;;;;4999879;28;20065;-55
2021/04/05 08:43:04;;;;;;;9.25;1.80;;;;;;;;;;5001831;28;20038;-56
2021/04/05 08:45:44;;;;;;;6.65;1.52;;;;;;;;;;4998220;28;20046;-57
2021/04/05 08:48:12;;;;;;;7.35;1.45;;;;;;;;;;4997903;28;20046;-56
2021/04/05 08:50:40;;;;;;;4.32;1.50;;;;;;;;;;4998012;28;20045;-56
2021/04/05 08:53:06;;;;;;;5.60;1.58;;;;;;;;;;5000650;28;20046;-56
2021/04/05 08:55:32;;;;;;;4.93;1.50;;;;;;;;;;4999562;28;20156;-54
2021/04/05 08:58:04;;;;;;;7.40;1.60;;;;;;;;;;4998634;28;20049;-56
2021/04/05 09:00:31;;;;;;;7.57;1.70;;;;;;;;;;4999131;28;20036;-55
2021/04/05 09:03:00;;;;;;;6.53;1.58;;;;;;;;;;5000791;28;20049;-56
2021/04/05 09:05:27;;;;;;;5.78;1.65;;;;;;;;;;5001538;28;20110;-57
2021/04/05 09:07:53;;;;;;;4.07;1.40;;;;;;;;;;4974533;28;20209;-56
2021/04/05 09:10:24;;;;;;;4.18;1.50;;;;;;;;;;4963986;28;20683;-55
2021/04/05 09:12:50;;;;;;;5.78;1.48;;;;;;;;;;4963935;28;20073;-57
2021/04/05 09:15:19;;;;;;;8.80;1.70;;;;;;;;;;4963076;28;20079;-57
2021/04/05 09:17:51;;;;;;;5.32;1.60;;;;;;;;;;4960129;28;20038;-57
2021/04/05 09:20:35;;;;;;;6.07;1.50;;;;;;;;;;4963207;28;20043;-56
2021/04/05 09:23:30;;;;;;;4.70;1.63;;;;;;;;;;4965411;28;20097;-58
2021/04/05 09:26:03;;;;;;;4.72;1.63;;;;;;;;;;4979366;28;20112;-56
2021/04/05 09:28:48;;;;;;;3.13;1.23;;;;;;;;;;4966451;28;20066;-53
2021/04/05 09:31:46;;;;;;;5.10;1.58;;;;;;;;;;4966630;28;20590;-58
2021/04/05 09:34:44;;;;;;;4.68;1.60;;;;;;;;;;4962539;28;20500;-56
2021/04/05 09:37:13;;;;;;;6.03;1.48;;;;;;;;;;4958930;28;20039;-52
2021/04/05 09:39:52;;;;;;;5.82;1.63;;;;;;;;;;4965536;28;20054;-57
2021/04/05 09:42:37;;;;;;;3.80;1.35;;;;;;;;;;4965964;28;20047;-54
2021/04/05 09:45:14;;;;;;;4.28;1.20;;;;;;;;;;4966228;28;20061;-52
2021/04/05 09:47:47;;;;;;;4.68;1.13;;;;;;;;;;4965187;28;20053;-53
2021/04/05 09:50:32;;;;;;;4.15;1.42;;;;;;;;;;4964237;28;20043;-57
2021/04/05 09:53:16;;;;;;;6.82;1.73;;;;;;;;;;4965204;28;20583;-56
2021/04/05 09:55:47;;;;;;;5.82;1.70;;;;;;;;;;4964001;28;20039;-54
2021/04/05 09:58:19;;;;;;;5.65;1.17;;;;;;;;;;4964475;28;20045;-55
2021/04/05 10:00:51;;;;;;;4.00;1.20;;;;;;;;;;4963308;28;20715;-54
2021/04/05 10:03:17;;;;;;;4.90;1.50;;;;;;;;;;4964022;28;20047;-56
2021/04/05 10:05:47;;;;;;;5.13;1.40;;;;;;;;;;4963398;28;20039;-57
2021/04/05 10:08:33;;;;;;;5.70;1.40;;;;;;;;;;4959539;28;20049;-55
2021/04/05 10:11:02;;;;;;;5.63;1.45;;;;;;;;;;4961724;28;20054;-55
2021/04/05 10:13:29;;;;;;;3.28;1.20;;;;;;;;;;4976263;28;20035;-57
2021/04/05 10:15:56;;;;;;;5.45;1.30;;;;;;;;;;4961445;28;20515;-55
2021/04/05 10:18:23;;;;;;;3.92;1.40;;;;;;;;;;4959640;28;20091;-57
2021/04/05 10:20:50;;;;;;;4.53;1.50;;;;;;;;;;4962022;28;20042;-56
2021/04/05 10:23:21;;;;;;;6.65;1.38;;;;;;;;;;4960389;28;20065;-55
2021/04/05 10:25:51;;;;;;;5.72;1.40;;;;;;;;;;4960621;28;20034;-57
2021/04/05 10:28:18;;;;;;;7.10;1.58;;;;;;;;;;4960244;28;20053;-57
2021/04/05 10:30:45;;;;;;;8.05;1.58;;;;;;;;;;4960879;28;21118;-56
2021/04/05 10:33:15;;;;;;;4.55;1.60;;;;;;;;;;4944721;28;20146;-54
2021/04/05 10:35:42;;;;;;;3.85;1.42;;;;;;;;;;4960206;28;20053;-57
2021/04/05 10:38:08;;;;;;;4.95;1.85;;;;;;;;;;4959960;28;20093;-57
2021/04/05 10:40:35;;;;;;;3.83;1.38;;;;;;;;;;4960042;28;20616;-56
2021/04/05 10:43:23;;;;;;;4.97;1.48;;;;;;;;;;4962089;28;20124;-57
2021/04/05 10:46:15;;;;;;;5.70;1.30;;;;;;;;;;4951433;28;20034;-53
2021/04/05 10:49:01;;;;;;;6.72;1.40;;;;;;;;;;4961133;28;20343;-55
2021/04/05 10:51:29;;;;;;;4.47;1.30;;;;;;;;;;4965481;28;20050;-56
2021/04/05 10:53:59;;;;;;;6.90;1.60;;;;;;;;;;4965937;28;20031;-52
2021/04/05 10:56:26;;;;;;;3.67;1.27;;;;;;;;;;4964322;28;20054;-53
2021/04/05 10:59:03;;;;;;;5.57;1.38;;;;;;;;;;4965114;28;20054;-54
2021/04/05 11:01:32;;;;;;;7.20;1.60;;;;;;;;;;4963298;28;20197;-55
2021/04/05 11:03:58;;;;;;;4.90;1.77;;;;;;;;;;4964241;28;20053;-53
2021/04/05 11:06:25;;;;;;;5.80;1.70;;;;;;;;;;4960656;28;20403;-54
2021/04/05 11:08:52;;;;;;;5.00;1.67;;;;;;;;;;4961023;28;20098;-56
2021/04/05 11:11:21;;;;;;;4.38;1.50;;;;;;;;;;4961760;28;20055;-56
2021/04/05 11:13:54;;;;;;;5.55;1.70;;;;;;;;;;4963440;28;20042;-55
2021/04/05 11:16:21;;;;;;;3.83;1.40;;;;;;;;;;4963221;28;20043;-54
2021/04/05 11:18:58;;;;;;;6.10;1.70;;;;;;;;;;4958626;28;20473;-57
2021/04/05 11:21:31;;;;;;;5.18;1.65;;;;;;;;;;4962562;28;20515;-56
2021/04/05 11:23:57;;;;;;;8.32;1.70;;;;;;;;;;4963498;28;20035;-56
2021/04/05 11:26:26;;;;;;;4.43;1.50;;;;;;;;;;4964292;28;20038;-53
2021/04/05 11:28:58;;;;;;;5.28;1.70;;;;;;;;;;4964395;28;20034;-55
2021/04/05 11:31:24;;;;;;;7.15;1.65;;;;;;;;;;4962741;28;20050;-57
2021/04/05 11:34:00;;;;;;;5.68;1.67;;;;;;;;;;4966027;28;20034;-52
2021/04/05 11:36:38;;;;;;;4.40;1.70;;;;;;;;;;4963994;28;20070;-55
2021/04/05 11:39:07;;;;;;;5.20;1.75;;;;;;;;;;4963806;28;20041;-57
2021/04/05 11:41:33;;;;;;;6.28;1.35;;;;;;;;;;4964401;28;20136;-55
2021/04/05 11:44:00;;;;;;;3.67;1.30;;;;;;;;;;4996855;28;20038;-53
2021/04/05 11:46:27;;;;;;;5.45;1.60;;;;;;;;;;4962773;28;20057;-57
2021/04/05 11:49:06;;;;;;;4.95;1.55;;;;;;;;;;4962807;28;20050;-55
2021/04/05 11:51:37;;;;;;;8.90;1.73;;;;;;;;;;4962287;28;20057;-57
2021/04/05 11:54:04;;;;;;;13.02;1.58;;;;;;;;;;4964735;28;20038;-57
2021/04/05 11:56:32;;;;;;;7.25;1.70;;;;;;;;;;4962940;28;20058;-54
2021/04/05 11:59:03;;;;;;;4.38;1.33;;;;;;;;;;4962447;28;20499;-53
2021/04/05 12:01:36;;;;;;;4.60;1.58;;;;;;;;;;4962141;28;20660;-53
2021/04/05 12:04:02;;;;;;;;;;;;;;;;;;4948191;28;20045;-57
2021/04/05 12:06:46;;;;;;;7.35;1.48;;;;;;;;;;4959980;28;19961;-58
2021/04/05 12:09:24;;;;;;;5.72;1.42;;;;;;;;;;4961472;28;20035;-57
2021/04/05 12:11:52;;;;;;;4.97;1.20;;;;;;;;;;4962274;28;20047;-56
2021/04/05 12:14:24;;;;;;;5.57;1.50;;;;;;;;;;4961963;28;20074;-57
2021/04/05 12:16:51;;;;;;;5.20;1.65;;;;;;;;;;4962591;28;20042;-57
2021/04/05 12:19:22;;;;;;;8.15;1.65;;;;;;;;;;4962122;28;20042;-56
2021/04/05 12:21:49;;;;;;;4.82;1.63;;;;;;;;;;4961813;28;20126;-55
2021/04/05 12:24:23;;;;;;;6.60;1.63;;;;;;;;;;4962834;28;20090;-56
2021/04/05 12:26:48;;;;;;;13.02;1.65;;;;;;;;;;4962546;28;20404;-52
2021/04/05 12:29:14;;;;;;;11.15;2.00;;;;;;;;;;4962682;28;20122;-56
2021/04/05 12:31:41;;;;;;;9.65;1.85;;;;;;;;;;4954800;28;20050;-54
2021/04/05 12:34:11;;;;;;;5.53;1.60;;;;;;;;;;4961895;28;20053;-55
2021/04/05 12:36:39;;;;;;;4.90;1.60;;;;;;;;;;4959345;28;20042;-53
2021/04/05 12:39:06;;;;;;;4.25;1.65;;;;;;;;;;4960078;28;20039;-55
2021/04/05 12:41:52;;;;;;;5.72;1.60;;;;;;;;;;4959659;28;21017;-56
2021/04/05 12:44:23;;;;;;;6.70;2.20;;;;;;;;;;4961078;28;20039;-57
2021/04/05 12:46:50;;;;;;;6.25;1.60;;;;;;;;;;4961415;28;20174;-53
2021/04/05 12:49:21;;;;;;;9.20;2.08;;;;;;;;;;4959362;28;20042;-52
2021/04/05 12:52:07;;;;;;;4.25;1.60;;;;;;;;;;4962213;28;20412;-54
2021/04/05 12:54:36;;;;;;;10.55;2.20;;;;;;;;;;4971043;28;20035;-57
2021/04/05 12:57:03;;;;;;;5.25;1.73;;;;;;;;;;4960253;28;20061;-56
2021/04/05 12:59:32;;;;;;;9.63;2.72;;;;;;;;;;4963583;28;20487;-58
2021/04/05 13:02:19;;;;;;;5.93;1.80;;;;;;;;;;4966435;28;20604;-58
2021/04/05 13:04:57;;;;;;;8.35;1.98;;;;;;;;;;4963830;28;20046;-57
2021/04/05 13:07:26;;;;;;;9.07;2.17;;;;;;;;;;4964008;28;20511;-54
2021/04/05 13:09:59;;;;;;;4.75;1.92;;;;;;;;;;4965892;28;20088;-56
2021/04/05 13:12:45;;;;;;;6.53;2.10;;;;;;;;;;4964650;28;20455;-54
2021/04/05 13:15:15;;;;;;;6.10;1.90;;;;;;;;;;4963037;28;20742;-53
2021/04/05 13:17:45;;;;;;;7.75;2.03;;;;;;;;;;4964872;28;20117;-52
2021/04/05 13:20:13;;;;;;;12.68;2.58;;;;;;;;;;4965160;28;20157;-56
2021/04/05 13:22:43;;;;;;;14.70;3.28;;;;;;;;;;4964451;28;20054;-58
2021/04/05 13:25:11;;;;;;;15.07;3.85;;;;;;;;;;4965193;28;20046;-56
2021/04/05 13:27:39;;;;;;;19.27;3.38;;;;;;;;;;4963560;28;20397;-56
2021/04/05 13:30:06;;;;;;;10.40;2.70;;;;;;;;;;4964663;28;20586;-55
2021/04/05 13:32:35;;;;;;;8.68;2.00;;;;;;;;;;4964603;28;20459;-56
2021/04/05 13:35:06;;;;;;;11.02;2.20;;;;;;;;;;4966759;28;20420;-56
2021/04/05 13:37:33;;;;;;;16.52;2.97;;;;;;;;;;4964654;28;20049;-58
2021/04/05 13:39:59;;;;;;;6.63;2.33;;;;;;;;;;4964571;28;20034;-56
2021/04/05 13:42:27;;;;;;;13.02;2.55;;;;;;;;;;4963989;28;20042;-56
2021/04/05 13:44:54;;;;;;;7.25;2.10;;;;;;;;;;4964334;28;20062;-56
2021/04/05 13:47:24;;;;;;;11.30;2.28;;;;;;;;;;4963343;28;20043;-56
2021/04/05 13:50:06;;;;;;;4.85;1.58;;;;;;;;;;4964028;28;20034;-56
2021/04/05 13:52:33;;;;;;;6.65;1.80;;;;;;;;;;4964015;28;20059;-56
2021/04/05 13:55:03;;;;;;;7.72;1.88;;;;;;;;;;4965124;28;20047;-54
2021/04/05 13:57:35;;;;;;;7.53;2.00;;;;;;;;;;4962477;28;20500;-55
2021/04/05 14:00:11;;;;;;;12.50;2.13;;;;;;;;;;4963565;28;21955;-56
2021/04/05 14:02:42;;;;;;;7.15;2.08;;;;;;;;;;4993067;28;20042;-55
2021/04/05 14:05:12;;;;;;;7.00;1.88;;;;;;;;;;4963768;28;20101;-56
2021/04/05 14:07:39;;;;;;;4.20;1.75;;;;;;;;;;4963187;28;20049;-56
2021/04/05 14:10:06;;;;;;;11.45;2.45;;;;;;;;;;4963365;28;20035;-54
2021/04/05 14:12:34;;;;;;;7.68;2.00;;;;;;;;;;4964089;28;20042;-56
2021/04/05 14:15:01;;;;;;;9.70;1.80;;;;;;;;;;4995870;28;21432;-55
2021/04/05 14:17:29;;;;;;;7.68;2.20;;;;;;;;;;4964661;28;20038;-56
2021/04/05 14:20:01;;;;;;;7.93;1.85;;;;;;;;;;4965906;28;20119;-55
2021/04/05 14:22:33;;;;;;;6.22;2.08;;;;;;;;;;4962779;28;20038;-57
2021/04/05 14:25:02;;;;;;;7.63;2.00;;;;;;;;;;4963995;28;21034;-57
2021/04/05 14:27:36;;;;;;;6.05;1.95;;;;;;;;;;4963091;28;20046;-55
2021/04/05 14:30:05;;;;;;;7.72;2.00;;;;;;;;;;4978535;28;20398;-57
2021/04/05 14:32:35;;;;;;;10.38;2.55;;;;;;;;;;4963127;28;20042;-61
2021/04/05 14:35:06;;;;;;;6.20;1.77;;;;;;;;;;4963648;28;20137;-54
2021/04/05 14:37:46;;;;;;;11.65;1.88;;;;;;;;;;4963102;28;20173;-56
2021/04/05 14:40:13;;;;;;;7.75;2.20;;;;;;;;;;4964194;28;20339;-52
2021/04/05 14:42:44;;;;;;;5.30;1.50;;;;;;;;;;4964780;28;20062;-53
2021/04/05 14:45:11;;;;;;;10.55;1.88;;;;;;;;;;4965677;28;20695;-52
2021/04/05 14:47:39;;;;;;;3.90;1.48;;;;;;;;;;4966504;28;20070;-56
2021/04/05 14:50:06;;;;;;;6.38;2.00;;;;;;;;;;4966638;28;20042;-55
2021/04/05 14:52:39;;;;;;;5.68;2.13;;;;;;;;;;4964931;28;20093;-55
2021/04/05 14:55:06;;;;;;;7.13;1.73;;;;;;;;;;4957551;28;20599;-54
2021/04/05 14:57:49;;;;;;;13.38;2.50;;;;;;;;;;4963027;28;20054;-55
2021/04/05 15:00:17;;;;;;;8.57;2.13;;;;;;;;;;4962784;28;20081;-57
2021/04/05 15:02:43;;;;;;;7.53;2.30;;;;;;;;;;4954710;28;20034;-54
2021/04/05 15:05:10;;;;;;;8.35;2.28;;;;;;;;;;4955057;28;20039;-57